Incident ATR 72-212A PP-PTQ, 14 Oct 2021
ASN logo
ASN Wikibase Occurrence # 268977
 
This information is added by users of ASN. Neither ASN nor the Flight Safety Foundation are responsible for the completeness or correctness of this information. If you feel this information is incomplete or incorrect, you can submit corrected information.

Date:14-OCT-2021
Time:08:35 UTC
Type:Silhouette image of generic AT72 model; specific model in this crash may look slightly different    
ATR 72-212A
Owner/operator:Voepass Linhas Aéreas
Registration: PP-PTQ
MSN: 874
Fatalities:Fatalities: 0 / Occupants: 27
Other fatalities:0
Aircraft damage: None
Category:Incident
Location:Presidente Prudente-A. De Barros Airport, SP (PPB/SBDN) -   Brazil
Phase: Take off
Nature:Passenger - Scheduled
Departure airport:Presidente Prudente-A. De Barros Airport, SP (PPB/SBDN)
Destination airport:São Paulo-Guarulhos International Airport, SP (GRU/SBGR)
Investigating agency: CENIPA
Confidence Rating: Information verified through data from accident investigation authorities
Narrative:
Voepass Linhas Aéreas flight P32267, an ATR-72-212A, suffered a loss of altitude during takeoff from Presidente Prudente Airport, Brazil, after encountering a 'meteorological phenomenon' according to the Brazilian safety board CENIPA. The flight crew recovered and the flight continued to São Paulo.

Weather reported about the incident time (0835Z):
SBDN 140800Z 07007KT 040V110 CAVOK 23/11 Q1007
SBDN 140900Z 20023G40KT 4000 TSRA BKN050CB OVC070 22/15 Q1012

Sources:

CENIPA
Video : http://www.goklerdeyiz.net/video-faciaya-ramak-kala/
https://www.flightradar24.com/data/aircraft/pp-ptq#297f792d

Other occurrences involving this aircraft

10 Sep 2013 PP-PTQ TRIP Linhas Aéreas 0 João Pessoa, PB non
22 Mar 2017 PP-PTQ Passaredo Transportes Aereos 0 São Paulo-Guarulhos International Airport, SP (GRU/SBGR) non

Media:


Revision history:

Date/timeContributorUpdates
16-Oct-2021 06:34 Goklerdeyiz.net Added
16-Oct-2021 06:37 harro Updated [Date, Time, Operator, Total fatalities, Other fatalities, Location, Source, Embed code, Narrative]
16-Oct-2021 06:39 harro Updated [Source, Narrative]
16-Oct-2021 18:36 harro Updated [Narrative]

Corrections or additions? ... Edit this accident description

The Aviation Safety Network is an exclusive service provided by:
Quick Links:

CONNECT WITH US: FSF Facebook FSF Twitter FSF Youtube FSF LinkedIn FSF Instagram

©2023 Flight Safety Foundation

701 N. Fairfax St., Ste. 250
Alexandria, Virginia 22314
www.FlightSafety.org